Time;durP1;ratioP1;P1;durP2;ratioP2;P2;SDS_P1;SDS_P2;PMS_P1;PMS_P2;Temp;Humidity;BMP_temperature;BMP_pressure;BME280_temperature;BME280_humidity;BME280_pressure;Samples;Min_cycle;Max_cycle;Signal;HPM_P1;HPM_P2
2022/12/14 00:01:18;;;;;;;47.50;22.00;;;-3.80;99.90;;;;;;5053612;28;20044;-43
2022/12/14 00:03:45;;;;;;;46.60;20.98;;;-3.80;99.90;;;;;;5071749;28;20060;-46
2022/12/14 00:06:15;;;;;;;49.75;21.92;;;-3.80;99.90;;;;;;5071603;28;20032;-48
2022/12/14 00:08:41;;;;;;;50.70;22.40;;;-3.90;99.90;;;;;;5071567;28;20035;-45
2022/12/14 00:11:07;;;;;;;41.95;19.67;;;-3.80;99.90;;;;;;5071306;28;20028;-44
2022/12/14 00:13:33;;;;;;;49.08;20.75;;;-3.80;99.90;;;;;;5053639;28;20040;-46
2022/12/14 00:16:07;;;;;;;48.30;21.23;;;-3.80;99.90;;;;;;5071120;28;20289;-44
2022/12/14 00:18:33;;;;;;;45.70;20.67;;;-3.80;99.90;;;;;;5071450;28;20476;-43
2022/12/14 00:21:08;;;;;;;47.85;22.17;;;-3.80;99.90;;;;;;5071356;28;20319;-44
2022/12/14 00:23:35;;;;;;;52.10;21.98;;;-3.90;99.90;;;;;;5070635;28;20032;-43
2022/12/14 00:26:12;;;;;;;44.50;20.17;;;-3.80;99.90;;;;;;5071321;28;20048;-46
2022/12/14 00:28:39;;;;;;;50.80;20.67;;;-3.80;99.90;;;;;;5051078;28;20090;-43
2022/12/14 00:31:05;;;;;;;49.88;21.10;;;-3.90;99.90;;;;;;5069790;28;20063;-43
2022/12/14 00:33:31;;;;;;;51.10;20.63;;;-3.80;99.90;;;;;;5071096;28;20472;-43
2022/12/14 00:35:57;;;;;;;48.72;21.13;;;-3.90;99.90;;;;;;5070958;28;20032;-45
2022/12/14 00:38:23;;;;;;;44.92;20.25;;;-3.90;99.90;;;;;;5069774;28;20083;-44
2022/12/14 00:40:49;;;;;;;47.30;20.00;;;-3.80;99.90;;;;;;5070991;28;20067;-43
2022/12/14 00:43:15;;;;;;;48.83;20.75;;;-3.90;99.90;;;;;;5052514;28;20045;-42
2022/12/14 00:45:43;;;;;;;46.53;18.90;;;-4.00;99.90;;;;;;5070622;28;20454;-43
2022/12/14 00:48:09;;;;;;;41.55;19.42;;;-4.00;99.90;;;;;;5070088;28;20089;-43
2022/12/14 00:50:35;;;;;;;43.38;19.63;;;-4.00;99.90;;;;;;5052424;28;20495;-46
2022/12/14 00:53:01;;;;;;;43.15;19.52;;;-4.00;99.90;;;;;;5070787;28;20040;-43
2022/12/14 00:55:27;;;;;;;46.50;20.27;;;-3.90;99.90;;;;;;5070423;28;20518;-44
2022/12/14 00:57:52;;;;;;;43.42;18.83;;;-3.90;99.90;;;;;;5069356;28;20048;-44
2022/12/14 01:00:18;;;;;;;45.38;18.92;;;-4.00;99.90;;;;;;5070570;28;20048;-45
2022/12/14 01:02:44;;;;;;;44.92;18.95;;;-4.10;99.90;;;;;;5070615;28;20082;-46
2022/12/14 01:05:09;;;;;;;45.90;20.02;;;-4.00;99.90;;;;;;5070336;28;20472;-44
2022/12/14 01:07:36;;;;;;;45.03;18.98;;;-4.00;99.90;;;;;;5070517;28;20112;-43
2022/12/14 01:10:01;;;;;;;47.35;19.70;;;-4.10;99.90;;;;;;5070381;28;20155;-45
2022/12/14 01:12:27;;;;;;;45.05;18.55;;;-4.20;99.90;;;;;;5070279;28;20123;-46
2022/12/14 01:14:53;;;;;;;40.83;18.48;;;-4.30;99.90;;;;;;5035824;28;20377;-49
2022/12/14 01:17:19;;;;;;;39.70;17.48;;;-4.20;99.90;;;;;;5069827;28;20044;-44
2022/12/14 01:19:44;;;;;;;41.08;17.92;;;-4.30;99.90;;;;;;5070479;28;20127;-44
2022/12/14 01:22:10;;;;;;;48.38;18.40;;;-4.20;99.90;;;;;;5070315;28;20089;-47
2022/12/14 01:24:36;;;;;;;42.92;17.77;;;-4.30;99.90;;;;;;5070268;28;20047;-44
2022/12/14 01:27:01;;;;;;;38.60;17.05;;;-4.30;99.90;;;;;;5070450;28;20041;-44
2022/12/14 01:29:27;;;;;;;41.42;17.95;;;-4.30;99.90;;;;;;5050799;28;20071;-45
2022/12/14 01:31:53;;;;;;;44.75;18.15;;;-4.40;99.90;;;;;;5069984;28;20051;-43
2022/12/14 01:34:18;;;;;;;38.58;17.65;;;-4.40;99.90;;;;;;5070133;28;20037;-43
2022/12/14 01:36:44;;;;;;;40.83;17.38;;;-4.40;99.90;;;;;;5051874;28;20408;-43
2022/12/14 01:39:12;;;;;;;41.15;17.25;;;-4.50;99.90;;;;;;5069974;28;20434;-42
2022/12/14 01:41:48;;;;;;;43.20;16.98;;;-4.50;99.90;;;;;;5069790;28;20037;-43
2022/12/14 01:44:13;;;;;;;38.97;16.48;;;-4.50;99.90;;;;;;5070313;28;20079;-44
2022/12/14 01:46:58;;;;;;;33.58;16.38;;;-4.50;99.90;;;;;;5069300;28;20084;-44
2022/12/14 01:49:39;;;;;;;39.15;16.50;;;-4.60;99.90;;;;;;5070222;28;20043;-44
2022/12/14 01:52:28;;;;;;;36.78;16.33;;;-4.60;99.90;;;;;;5069713;28;20052;-43
2022/12/14 01:54:59;;;;;;;41.75;16.73;;;-4.60;99.90;;;;;;5069095;28;20048;-43
2022/12/14 01:57:33;;;;;;;38.15;15.98;;;-4.70;99.90;;;;;;5069937;28;20040;-45
2022/12/14 02:00:00;;;;;;;41.55;15.95;;;-4.70;99.90;;;;;;5069642;28;20047;-47
2022/12/14 02:02:27;;;;;;;37.08;16.55;;;-4.70;99.90;;;;;;5069581;28;20056;-47
2022/12/14 02:04:58;;;;;;;35.33;15.00;;;-4.70;99.90;;;;;;5069807;28;20044;-43
2022/12/14 02:07:25;;;;;;;36.88;16.67;;;-4.80;99.90;;;;;;5068936;28;20036;-45
2022/12/14 02:09:52;;;;;;;37.97;15.55;;;-4.80;99.90;;;;;;5073868;28;20053;-45
2022/12/14 02:12:24;;;;;;;36.13;15.63;;;-4.70;99.90;;;;;;5073913;28;20417;-43
2022/12/14 02:14:51;;;;;;;43.33;17.00;;;-4.70;99.90;;;;;;5055702;28;20109;-46
2022/12/14 02:17:19;;;;;;;39.42;16.00;;;-4.70;99.90;;;;;;5073203;28;20043;-46
2022/12/14 02:19:48;;;;;;;35.83;15.63;;;-4.70;99.90;;;;;;5073829;28;20037;-46
2022/12/14 02:22:51;;;;;;;37.47;15.77;;;-4.70;99.90;;;;;;5073613;28;20040;-43
2022/12/14 02:25:35;;;;;;;37.22;15.55;;;-4.70;99.90;;;;;;5073373;28;20044;-44
2022/12/14 02:28:16;;;;;;;40.60;15.27;;;-4.70;99.90;;;;;;5072062;28;20071;-45
2022/12/14 02:30:47;;;;;;;39.17;15.23;;;-4.70;99.90;;;;;;5073396;28;20029;-45
2022/12/14 02:33:13;;;;;;;35.83;15.00;;;-4.70;99.90;;;;;;5054449;28;20076;-45
2022/12/14 02:35:56;;;;;;;36.88;14.52;;;-4.60;99.90;;;;;;5073461;28;20454;-44
2022/12/14 02:38:43;;;;;;;34.28;15.25;;;-4.70;99.90;;;;;;5073384;28;20162;-45
2022/12/14 02:41:37;;;;;;;31.05;13.60;;;-4.70;99.90;;;;;;5073232;28;20032;-46
2022/12/14 02:44:25;;;;;;;40.35;15.07;;;-4.70;99.90;;;;;;5073264;28;20032;-49
2022/12/14 02:47:01;;;;;;;42.83;15.60;;;-4.70;99.90;;;;;;5071428;28;20045;-44
2022/12/14 02:50:09;;;;;;;35.47;15.23;;;-4.70;99.90;;;;;;5072928;28;20036;-45
2022/12/14 02:53:07;;;;;;;37.28;14.77;;;-4.80;99.90;;;;;;5072329;28;20040;-45
2022/12/14 02:55:48;;;;;;;35.78;14.88;;;-4.70;99.90;;;;;;5072560;28;20045;-45
2022/12/14 02:58:20;;;;;;;36.75;15.18;;;-4.80;99.90;;;;;;5071667;28;20080;-45
2022/12/14 03:00:46;;;;;;;36.05;14.77;;;-4.80;99.90;;;;;;5072806;28;20044;-45
2022/12/14 03:03:12;;;;;;;32.28;14.27;;;-4.80;99.90;;;;;;5071263;28;21282;-45
2022/12/14 03:05:38;;;;;;;35.45;14.68;;;-4.90;99.90;;;;;;5071482;28;20033;-44
2022/12/14 03:08:15;;;;;;;35.47;15.10;;;-4.90;99.90;;;;;;5072903;28;20036;-45
2022/12/14 03:10:56;;;;;;;35.63;15.40;;;-5.00;99.90;;;;;;5072508;28;20033;-46
2022/12/14 03:13:31;;;;;;;33.38;15.02;;;-5.00;99.90;;;;;;5072642;28;20048;-46
2022/12/14 03:16:12;;;;;;;38.58;14.98;;;-5.00;99.90;;;;;;5072450;28;20086;-45
2022/12/14 03:18:50;;;;;;;35.55;15.00;;;-5.10;99.90;;;;;;5071893;28;20105;-45
2022/12/14 03:21:20;;;;;;;42.22;16.17;;;-5.10;99.90;;;;;;5071650;28;20071;-45
2022/12/14 03:23:48;;;;;;;39.13;15.77;;;-5.10;99.90;;;;;;5072543;28;20121;-47
2022/12/14 03:26:38;;;;;;;37.45;15.00;;;-5.20;99.90;;;;;;5072347;28;20040;-46
2022/12/14 03:29:26;;;;;;;34.35;14.98;;;-5.20;99.90;;;;;;5072391;28;20040;-46
2022/12/14 03:31:56;;;;;;;37.08;15.70;;;-5.20;99.90;;;;;;5072407;28;20029;-44
2022/12/14 03:34:30;;;;;;;35.67;15.80;;;-5.30;99.90;;;;;;5070963;28;20579;-46
2022/12/14 03:37:07;;;;;;;39.05;15.70;;;-5.30;99.90;;;;;;5072531;28;20472;-45
2022/12/14 03:39:34;;;;;;;36.70;16.15;;;-5.30;99.90;;;;;;5072156;28;20056;-46
2022/12/14 03:42:27;;;;;;;38.80;15.45;;;-5.30;99.90;;;;;;5072163;28;20108;-44
2022/12/14 03:45:14;;;;;;;40.45;14.70;;;-5.40;99.90;;;;;;5072435;28;20045;-46
2022/12/14 03:48:06;;;;;;;41.85;15.52;;;-5.40;99.90;;;;;;5038042;28;20112;-46
2022/12/14 03:50:57;;;;;;;43.47;16.10;;;-5.40;99.90;;;;;;5071881;28;20591;-44
2022/12/14 03:53:50;;;;;;;38.55;15.27;;;-5.50;99.90;;;;;;5072024;28;20052;-43
2022/12/14 03:56:25;;;;;;;38.40;16.45;;;-5.50;99.90;;;;;;5072148;28;20071;-45
2022/12/14 03:59:14;;;;;;;36.88;14.32;;;-5.50;99.90;;;;;;5071384;28;20044;-47
2022/12/14 04:01:44;;;;;;;38.72;14.70;;;-5.60;99.90;;;;;;5041684;28;20049;-46
2022/12/14 04:04:17;;;;;;;41.05;15.75;;;-5.60;99.90;;;;;;5070915;28;20036;-43
2022/12/14 04:06:48;;;;;;;38.35;16.13;;;-5.60;99.90;;;;;;5071882;28;20409;-47
2022/12/14 04:09:36;;;;;;;34.72;14.85;;;-5.60;99.90;;;;;;5052676;28;20495;-44
2022/12/14 04:20:46;;;;;;;38.35;16.25;;;-5.80;99.90;;;;;;5067734;28;20040;-44
2022/12/14 04:26:03;;;;;;;37.63;14.38;;;-5.80;99.90;;;;;;5071451;28;20036;-45
2022/12/14 04:26:11;;;;;;;39.53;15.25;;;-5.80;99.90;;;;;;5071083;28;20048;-44
2022/12/14 04:31:33;;;;;;;41.22;15.40;;;-5.80;99.90;;;;;;5070829;28;20047;-45
2022/12/14 04:34:03;;;;;;;41.30;15.40;;;-5.80;99.90;;;;;;5071243;28;20039;-43
2022/12/14 04:36:32;;;;;;;38.75;15.93;;;-5.80;99.90;;;;;;5069445;28;20043;-44
2022/12/14 04:39:04;;;;;;;40.67;15.60;;;-5.80;99.90;;;;;;5053207;28;20045;-45
2022/12/14 04:41:37;;;;;;;38.75;14.95;;;-5.80;99.90;;;;;;5051528;28;20044;-47
2022/12/14 04:44:07;;;;;;;37.10;15.13;;;-5.80;99.90;;;;;;5071155;28;20438;-44
2022/12/14 04:46:36;;;;;;;42.63;14.55;;;-5.90;99.90;;;;;;5069764;28;20033;-45
2022/12/14 04:49:12;;;;;;;34.92;14.13;;;-5.90;99.90;;;;;;5052633;28;20036;-45
2022/12/14 04:52:26;;;;;;;41.13;15.25;;;-6.00;99.90;;;;;;5070354;28;20037;-44
2022/12/14 04:54:58;;;;;;;28.35;12.95;;;-5.90;99.90;;;;;;5057009;28;20109;-48
2022/12/14 04:57:30;;;;;;;37.40;13.35;;;-6.00;99.90;;;;;;5070524;28;20468;-44
2022/12/14 04:59:58;;;;;;;33.25;13.05;;;-6.00;99.90;;;;;;5070805;28;20044;-46
2022/12/14 05:02:45;;;;;;;40.95;14.90;;;-6.00;99.90;;;;;;5070711;28;20041;-50
2022/12/14 05:05:16;;;;;;;33.92;13.63;;;-6.00;99.90;;;;;;5070439;28;20075;-46
2022/12/14 05:07:50;;;;;;;33.92;13.30;;;-6.00;99.90;;;;;;5069925;28;20060;-43
2022/12/14 05:10:29;;;;;;;38.72;14.50;;;-6.00;99.90;;;;;;5070641;28;20037;-44
2022/12/14 05:13:14;;;;;;;38.20;13.93;;;-6.00;99.90;;;;;;5069529;28;20070;-47
2022/12/14 05:15:45;;;;;;;34.53;13.45;;;-6.00;99.90;;;;;;5070502;28;20064;-46
2022/12/14 05:18:11;;;;;;;36.55;14.27;;;-6.00;99.90;;;;;;5070189;28;20040;-44
2022/12/14 05:20:37;;;;;;;38.22;14.52;;;-6.10;99.90;;;;;;5070477;28;20070;-45
2022/12/14 05:23:03;;;;;;;39.47;15.48;;;-6.10;99.90;;;;;;5069282;28;20033;-45
2022/12/14 05:25:28;;;;;;;35.38;13.35;;;-6.10;99.90;;;;;;5052139;28;20440;-46
2022/12/14 05:27:54;;;;;;;34.20;14.45;;;-6.10;99.90;;;;;;5070465;28;20044;-45
2022/12/14 05:30:20;;;;;;;39.05;14.85;;;-6.20;99.90;;;;;;5070208;28;20075;-46
2022/12/14 05:32:45;;;;;;;34.13;13.02;;;-6.20;99.90;;;;;;5070001;28;20488;-48
2022/12/14 05:35:14;;;;;;;33.47;13.90;;;-6.20;99.90;;;;;;5070303;28;20045;-47
2022/12/14 05:37:41;;;;;;;44.38;14.70;;;-6.20;99.90;;;;;;5070358;28;20069;-45
2022/12/14 05:40:07;;;;;;;29.40;12.43;;;-6.20;99.90;;;;;;5069657;28;20146;-46
2022/12/14 05:42:33;;;;;;;32.60;13.20;;;-6.20;99.90;;;;;;5069499;28;20379;-47
2022/12/14 05:44:59;;;;;;;38.70;13.88;;;-6.20;99.90;;;;;;5070307;28;20036;-44
2022/12/14 05:47:24;;;;;;;29.40;12.32;;;-6.30;99.90;;;;;;5069752;28;20029;-44
2022/12/14 05:49:50;;;;;;;33.30;13.85;;;-6.20;99.90;;;;;;5070067;28;20068;-44
2022/12/14 05:52:16;;;;;;;33.95;14.07;;;-6.30;99.90;;;;;;5070362;28;20040;-44
2022/12/14 05:54:42;;;;;;;33.60;13.55;;;-6.30;99.90;;;;;;5069927;28;20412;-45
2022/12/14 05:57:08;;;;;;;40.67;14.10;;;-6.30;99.90;;;;;;5051846;28;20051;-45
2022/12/14 05:59:33;;;;;;;34.20;13.43;;;-6.30;99.90;;;;;;5070125;28;20049;-45
2022/12/14 06:01:59;;;;;;;38.30;12.68;;;-6.40;99.90;;;;;;5068639;28;20044;-46
2022/12/14 06:04:25;;;;;;;36.95;13.93;;;-6.40;99.90;;;;;;5069716;28;20492;-43
2022/12/14 06:06:50;;;;;;;36.72;14.65;;;-6.40;99.90;;;;;;5069716;28;20147;-47
2022/12/14 06:09:17;;;;;;;35.47;14.00;;;-6.40;99.90;;;;;;5069870;28;20036;-45
2022/12/14 06:11:45;;;;;;;34.05;13.77;;;-6.30;99.90;;;;;;5051798;28;20514;-44
2022/12/14 06:14:12;;;;;;;30.50;13.07;;;-6.40;99.90;;;;;;5069733;28;20039;-47
2022/12/14 06:16:43;;;;;;;33.95;12.98;;;-6.40;99.90;;;;;;5034936;28;20033;-46
2022/12/14 06:19:10;;;;;;;38.72;14.20;;;-6.40;99.90;;;;;;5069671;28;20040;-44
2022/12/14 06:21:38;;;;;;;41.30;14.43;;;-6.40;99.90;;;;;;5050913;28;20048;-45
2022/12/14 06:24:05;;;;;;;39.83;14.45;;;-6.40;99.90;;;;;;5069799;28;20038;-46
2022/12/14 06:26:32;;;;;;;37.83;13.38;;;-6.40;99.90;;;;;;5069715;28;20040;-45
2022/12/14 06:28:58;;;;;;;30.90;12.52;;;-6.40;99.90;;;;;;5051688;28;20046;-45
2022/12/14 06:31:27;;;;;;;31.00;12.77;;;-6.50;99.90;;;;;;5050071;28;20041;-45
2022/12/14 06:33:56;;;;;;;39.13;14.45;;;-6.50;99.90;;;;;;5068314;28;20046;-47
2022/12/14 06:36:25;;;;;;;36.63;13.57;;;-6.40;99.90;;;;;;5069643;28;20037;-44
2022/12/14 06:38:52;;;;;;;36.40;14.02;;;-6.50;99.90;;;;;;5069633;28;20033;-44
2022/12/14 06:41:18;;;;;;;38.30;13.85;;;-6.50;99.90;;;;;;5068312;28;20387;-47
2022/12/14 06:43:44;;;;;;;33.85;13.15;;;-6.50;99.90;;;;;;5069435;28;20037;-46
2022/12/14 06:46:12;;;;;;;30.73;13.18;;;-6.50;99.90;;;;;;5069651;28;20075;-46
2022/12/14 06:48:37;;;;;;;41.90;14.27;;;-6.50;99.90;;;;;;5069403;28;20029;-46
2022/12/14 06:51:05;;;;;;;35.67;12.93;;;-6.50;99.90;;;;;;5069167;28;20101;-46
2022/12/14 06:53:31;;;;;;;35.70;13.75;;;-6.50;99.90;;;;;;5069659;28;20044;-45
2022/12/14 06:56:06;;;;;;;38.10;13.48;;;-6.60;99.90;;;;;;5073102;28;20048;-45
2022/12/14 06:58:32;;;;;;;39.53;13.13;;;-6.60;99.90;;;;;;5072603;28;20583;-45
2022/12/14 07:01:09;;;;;;;35.33;13.52;;;-6.60;99.90;;;;;;5072920;28;20119;-44
2022/12/14 07:03:36;;;;;;;39.60;13.77;;;-6.70;99.90;;;;;;5072757;28;20054;-45
2022/12/14 07:06:02;;;;;;;37.10;13.73;;;-6.60;99.90;;;;;;5072951;28;20639;-46
2022/12/14 07:08:30;;;;;;;30.80;13.10;;;-6.60;99.90;;;;;;5073022;28;20488;-45
2022/12/14 07:11:00;;;;;;;40.90;14.32;;;-6.60;99.90;;;;;;5073109;28;20372;-45
2022/12/14 07:13:26;;;;;;;38.97;13.25;;;-6.60;99.90;;;;;;5072822;28;20483;-46
2022/12/14 07:15:52;;;;;;;34.35;13.57;;;-6.60;99.90;;;;;;5072930;28;20493;-45
2022/12/14 07:18:19;;;;;;;36.45;13.98;;;-6.60;99.90;;;;;;5072359;28;20090;-48
2022/12/14 07:20:57;;;;;;;38.72;12.38;;;-6.60;99.90;;;;;;5072379;28;20074;-45
2022/12/14 07:23:24;;;;;;;36.22;13.18;;;-6.60;99.90;;;;;;5072118;28;20123;-46
2022/12/14 07:25:51;;;;;;;38.38;13.70;;;-6.60;99.90;;;;;;5072297;28;20127;-49
2022/12/14 07:28:18;;;;;;;42.10;13.13;;;-6.70;99.90;;;;;;5072776;28;20085;-48
2022/12/14 07:30:43;;;;;;;39.70;13.40;;;-6.70;99.90;;;;;;5053963;28;20036;-43
2022/12/14 07:33:09;;;;;;;40.90;13.45;;;-6.70;99.90;;;;;;5054319;28;20483;-46
2022/12/14 07:35:35;;;;;;;36.63;13.30;;;-6.70;99.90;;;;;;5053704;28;20443;-47
2022/12/14 07:38:02;;;;;;;35.03;13.23;;;-6.70;99.90;;;;;;5072315;28;20480;-46
2022/12/14 07:40:28;;;;;;;37.40;13.40;;;-6.70;99.90;;;;;;5072070;28;20045;-50
2022/12/14 07:42:54;;;;;;;37.67;12.88;;;-6.80;99.90;;;;;;5070236;28;20087;-43
2022/12/14 07:45:20;;;;;;;34.58;12.50;;;-5.80;99.90;;;;;;5068632;28;20032;-43
2022/12/14 07:47:45;;;;;;;38.65;13.50;;;-6.80;99.90;;;;;;5071903;28;20036;-44
2022/12/14 07:50:11;;;;;;;41.47;14.15;;;-6.80;99.90;;;;;;5071674;28;20036;-46
2022/12/14 07:52:37;;;;;;;36.65;13.57;;;-6.20;99.90;;;;;;5071983;28;20044;-44
2022/12/14 07:55:03;;;;;;;38.88;14.63;;;-6.80;99.90;;;;;;5062100;28;20052;-46
2022/12/14 07:57:28;;;;;;;38.38;14.65;;;-6.80;99.90;;;;;;5061534;28;20060;-43
2022/12/14 07:59:54;;;;;;;41.88;13.50;;;-6.80;99.90;;;;;;5042645;28;20074;-44
2022/12/14 08:02:20;;;;;;;37.95;13.45;;;-6.80;99.90;;;;;;5061914;28;20037;-43
2022/12/14 08:04:46;;;;;;;42.80;14.63;;;-6.80;99.90;;;;;;5044279;28;20094;-44
2022/12/14 08:07:12;;;;;;;39.05;13.23;;;-6.80;99.90;;;;;;5041852;28;20059;-44
2022/12/14 08:09:37;;;;;;;40.67;14.43;;;-6.80;99.90;;;;;;5040403;28;20036;-44
2022/12/14 08:12:03;;;;;;;40.70;13.68;;;-6.80;99.90;;;;;;5061075;28;21736;-43
2022/12/14 08:14:29;;;;;;;43.25;14.00;;;-6.90;99.90;;;;;;5062722;28;20043;-44
2022/12/14 08:16:54;;;;;;;36.92;13.02;;;-6.90;99.90;;;;;;5062167;28;20569;-44
2022/12/14 08:19:20;;;;;;;38.13;15.00;;;-7.10;99.90;;;;;;5042104;28;20045;-44
2022/12/14 08:21:46;;;;;;;37.60;13.38;;;-7.10;99.90;;;;;;5061391;28;20048;-46
2022/12/14 08:24:13;;;;;;;37.67;13.55;;;-7.00;99.90;;;;;;5059880;28;20056;-44
2022/12/14 08:26:39;;;;;;;38.50;13.35;;;-7.10;99.90;;;;;;5061448;28;20395;-43
2022/12/14 08:29:05;;;;;;;35.03;13.60;;;-7.10;99.90;;;;;;5065689;28;20491;-44
2022/12/14 08:31:32;;;;;;;45.65;15.38;;;-7.00;99.90;;;;;;5066556;28;20033;-46
2022/12/14 08:33:58;;;;;;;36.20;13.63;;;-7.10;99.90;;;;;;5068872;28;20388;-43
2022/12/14 08:36:29;;;;;;;43.40;14.18;;;-7.10;99.90;;;;;;5069119;28;20119;-46
2022/12/14 08:39:01;;;;;;;39.38;13.32;;;-7.10;99.90;;;;;;5070879;28;20511;-45
2022/12/14 08:41:27;;;;;;;38.17;13.90;;;-7.10;99.90;;;;;;5071155;28;20040;-46
2022/12/14 08:44:00;;;;;;;35.15;13.65;;;-7.10;99.90;;;;;;5071100;28;20421;-45
2022/12/14 08:46:28;;;;;;;37.65;14.13;;;-7.10;99.90;;;;;;5067288;28;20060;-44
2022/12/14 08:48:54;;;;;;;36.42;13.65;;;-7.00;99.90;;;;;;5069155;28;20116;-44
2022/12/14 08:51:21;;;;;;;41.60;14.15;;;-7.10;99.90;;;;;;5070308;28;20032;-44
2022/12/14 08:53:47;;;;;;;42.35;14.10;;;-7.00;99.90;;;;;;5070522;28;20404;-44
2022/12/14 08:56:16;;;;;;;36.08;13.88;;;-7.00;99.90;;;;;;5069024;28;20437;-45
2022/12/14 08:58:42;;;;;;;38.17;14.55;;;-7.00;99.90;;;;;;5068394;28;20088;-44
2022/12/14 09:01:12;;;;;;;36.78;13.07;;;-6.90;99.90;;;;;;5068248;28;20044;-44
2022/12/14 09:03:43;;;;;;;39.88;13.70;;;-6.90;99.90;;;;;;5070197;28;20052;-44
2022/12/14 09:06:11;;;;;;;35.80;14.18;;;-6.90;99.90;;;;;;5069590;28;20540;-44
2022/12/14 09:08:37;;;;;;;43.30;13.40;;;-6.80;99.90;;;;;;5070166;28;20074;-46
2022/12/14 09:11:05;;;;;;;35.90;14.68;;;-6.80;99.90;;;;;;5069862;28;20044;-45
2022/12/14 09:13:31;;;;;;;41.30;14.23;;;-6.70;99.90;;;;;;5050701;28;20045;-46
2022/12/14 09:15:59;;;;;;;38.03;14.85;;;-6.70;99.90;;;;;;5070040;28;20037;-44
2022/12/14 09:18:25;;;;;;;35.83;13.43;;;-6.60;99.90;;;;;;5067747;28;20566;-44
2022/12/14 09:20:53;;;;;;;34.58;14.23;;;-6.50;99.90;;;;;;5069782;28;20048;-43
2022/12/14 09:23:20;;;;;;;40.75;14.02;;;-6.50;99.90;;;;;;5069833;28;20049;-45
2022/12/14 09:25:46;;;;;;;40.15;14.57;;;-6.50;99.90;;;;;;5069869;28;20033;-44
2022/12/14 09:28:11;;;;;;;41.75;14.93;;;-6.40;99.90;;;;;;5069769;28;20031;-46
2022/12/14 09:30:37;;;;;;;41.42;15.10;;;-6.30;99.90;;;;;;5069923;28;20028;-46
2022/12/14 09:33:03;;;;;;;38.67;14.60;;;-6.20;99.90;;;;;;5068651;28;20767;-43
2022/12/14 09:35:28;;;;;;;38.85;14.65;;;-4.00;99.90;;;;;;5052053;28;20387;-44
2022/12/14 09:37:54;;;;;;;42.45;14.93;;;-5.80;99.90;;;;;;5070251;28;20028;-44
2022/12/14 09:40:25;;;;;;;40.80;14.68;;;-5.70;99.90;;;;;;5051789;28;20036;-43
2022/12/14 09:43:03;;;;;;;37.90;14.45;;;-5.60;99.90;;;;;;5069538;28;20033;-44
2022/12/14 09:45:32;;;;;;;38.40;15.43;;;-5.50;99.90;;;;;;5069411;28;20372;-44
2022/12/14 09:48:01;;;;;;;41.05;14.23;;;-5.40;99.90;;;;;;5030675;28;20122;-43
2022/12/14 09:50:28;;;;;;;40.25;14.75;;;-5.30;99.90;;;;;;5069683;28;20076;-45
2022/12/14 09:52:58;;;;;;;34.63;14.68;;;-5.20;99.90;;;;;;5069661;28;20508;-44
2022/12/14 09:55:35;;;;;;;37.90;15.18;;;-5.20;99.90;;;;;;5069653;28;20044;-46
2022/12/14 09:58:04;;;;;;;40.83;15.93;;;-5.10;99.90;;;;;;5068692;28;20055;-44
2022/12/14 10:01:01;;;;;;;39.55;15.60;;;-5.00;99.90;;;;;;5069398;28;20098;-47
2022/12/14 10:03:27;;;;;;;34.90;14.32;;;-4.90;99.90;;;;;;5043499;28;20064;-44
2022/12/14 10:06:14;;;;;;;37.83;15.25;;;-4.80;99.90;;;;;;5050506;28;20499;-45
2022/12/14 10:08:46;;;;;;;37.63;14.30;;;-4.60;99.90;;;;;;5068443;28;20643;-44
2022/12/14 10:11:38;;;;;;;35.88;14.40;;;-4.60;99.90;;;;;;5069814;28;20048;-44
2022/12/14 10:14:19;;;;;;;35.35;14.38;;;-4.30;99.90;;;;;;5069637;28;20071;-46
2022/12/14 10:17:06;;;;;;;36.08;14.68;;;-4.30;99.90;;;;;;5069597;28;20037;-45
2022/12/14 10:19:50;;;;;;;35.50;14.18;;;-3.70;99.90;;;;;;5069461;28;20036;-45
2022/12/14 10:22:19;;;;;;;36.58;14.63;;;-3.10;99.90;;;;;;5069190;28;20041;-44
2022/12/14 10:24:49;;;;;;;30.08;13.20;;;-2.40;99.90;;;;;;5069751;28;20107;-47
2022/12/14 10:27:24;;;;;;;27.27;12.63;;;-1.70;99.90;;;;;;5069459;28;20041;-46
2022/12/14 10:30:04;;;;;;;29.83;13.70;;;-1.20;99.90;;;;;;5071464;28;20048;-47
2022/12/14 10:32:45;;;;;;;31.77;13.38;;;-0.90;99.90;;;;;;5073543;28;20426;-45
2022/12/14 10:35:17;;;;;;;29.40;13.13;;;-0.40;99.90;;;;;;5072622;28;20046;-45
2022/12/14 10:37:52;;;;;;;30.17;14.32;;;-0.30;99.90;;;;;;5073384;28;20041;-44
2022/12/14 10:40:30;;;;;;;34.50;14.65;;;-0.10;99.90;;;;;;5073594;28;20047;-46
2022/12/14 10:43:33;;;;;;;29.50;14.25;;;0.10;99.90;;;;;;5073309;28;20543;-47
2022/12/14 10:46:11;;;;;;;33.45;13.60;;;0.10;99.90;;;;;;5072972;28;20129;-47
2022/12/14 10:48:55;;;;;;;31.02;14.35;;;0.10;99.90;;;;;;5072893;28;20166;-44
2022/12/14 10:51:29;;;;;;;30.75;14.98;;;0.10;99.90;;;;;;5073218;28;20040;-47
2022/12/14 10:54:01;;;;;;;29.53;13.93;;;0.20;99.90;;;;;;5072875;28;20044;-45
2022/12/14 10:56:32;;;;;;;32.28;14.75;;;-0.10;99.90;;;;;;5072851;28;20317;-45
2022/12/14 10:59:25;;;;;;;29.63;14.05;;;-0.20;99.90;;;;;;5072094;28;20071;-44
2022/12/14 11:01:53;;;;;;;32.33;13.75;;;-0.30;99.90;;;;;;5072975;28;20514;-46
2022/12/14 11:04:59;;;;;;;29.42;14.80;;;-0.50;99.90;;;;;;5073086;28;20036;-46
2022/12/14 11:07:37;;;;;;;33.88;14.30;;;-0.50;99.90;;;;;;5030289;28;20045;-46
2022/12/14 11:10:24;;;;;;;26.88;12.88;;;-0.10;99.90;;;;;;5050286;28;20048;-46
2022/12/14 11:13:12;;;;;;;29.13;13.68;;;-0.20;99.90;;;;;;5071065;28;20044;-43
2022/12/14 11:15:45;;;;;;;26.02;12.70;;;0.00;99.90;;;;;;5070839;28;20442;-44
2022/12/14 11:18:10;;;;;;;29.17;12.65;;;0.10;99.90;;;;;;5072059;28;20045;-43
2022/12/14 11:20:49;;;;;;;27.58;13.43;;;0.10;99.90;;;;;;5072509;28;20045;-46
2022/12/14 11:23:28;;;;;;;24.75;12.32;;;0.20;99.90;;;;;;5068310;28;20076;-45
2022/12/14 11:25:57;;;;;;;25.83;12.68;;;0.40;99.90;;;;;;5071205;28;20036;-46
2022/12/14 11:28:46;;;;;;;33.30;13.70;;;0.80;99.90;;;;;;5051808;28;20468;-47
2022/12/14 11:31:19;;;;;;;26.85;13.73;;;1.30;99.90;;;;;;5072255;28;20037;-46
2022/12/14 11:33:54;;;;;;;28.98;14.50;;;2.60;99.90;;;;;;5072158;28;20102;-44
2022/12/14 11:36:39;;;;;;;25.23;12.13;;;1.60;99.90;;;;;;5072416;28;20044;-48
2022/12/14 11:39:19;;;;;;;26.15;12.18;;;1.90;99.90;;;;;;5072317;28;20139;-47
2022/12/14 11:42:03;;;;;;;29.52;15.35;;;2.00;99.90;;;;;;5071386;28;20040;-47
2022/12/14 11:44:35;;;;;;;31.10;15.85;;;1.80;99.90;;;;;;5071999;28;20037;-44
2022/12/14 11:47:15;;;;;;;33.65;17.08;;;2.00;99.90;;;;;;5070635;28;20033;-45
2022/12/14 11:49:41;;;;;;;31.48;16.08;;;1.60;99.90;;;;;;5072226;28;20033;-44
2022/12/14 11:52:19;;;;;;;30.73;16.90;;;1.80;99.90;;;;;;5072064;28;20369;-44
2022/12/14 11:54:50;;;;;;;31.33;17.08;;;1.50;99.90;;;;;;5071790;28;20040;-44
2022/12/14 11:57:30;;;;;;;29.50;17.00;;;1.50;99.90;;;;;;5071661;28;20123;-43
2022/12/14 12:00:06;;;;;;;33.45;18.17;;;1.20;99.90;;;;;;5071461;28;20510;-45
2022/12/14 12:02:36;;;;;;;34.03;17.35;;;1.20;99.90;;;;;;5071806;28;20515;-45
2022/12/14 12:05:10;;;;;;;35.58;17.75;;;1.00;99.90;;;;;;5071833;28;20373;-45
2022/12/14 12:07:57;;;;;;;32.10;18.23;;;1.20;99.90;;;;;;5071635;28;20488;-47
2022/12/14 12:10:43;;;;;;;34.97;18.30;;;0.80;99.90;;;;;;5051691;28;20074;-49
2022/12/14 12:13:35;;;;;;;35.78;18.65;;;0.60;99.90;;;;;;5071420;28;20498;-46
2022/12/14 12:16:12;;;;;;;32.83;17.52;;;0.70;99.90;;;;;;5051399;28;20057;-46
2022/12/14 12:18:52;;;;;;;33.50;19.13;;;0.60;99.90;;;;;;5071047;28;20044;-45
2022/12/14 12:21:29;;;;;;;30.77;17.95;;;0.70;99.90;;;;;;5071647;28;20127;-44
2022/12/14 12:24:20;;;;;;;32.75;18.83;;;0.70;99.90;;;;;;5070160;28;20121;-48
2022/12/14 12:26:57;;;;;;;31.58;17.58;;;0.80;99.90;;;;;;5071250;28;20488;-45
2022/12/14 12:29:57;;;;;;;30.13;17.60;;;0.90;99.90;;;;;;5070619;28;20029;-44
2022/12/14 12:32:26;;;;;;;29.17;16.63;;;0.80;99.90;;;;;;5071399;28;20141;-47
2022/12/14 12:35:04;;;;;;;28.27;16.33;;;0.90;99.90;;;;;;5071072;28;20048;-45
2022/12/14 12:37:49;;;;;;;30.80;16.73;;;0.80;99.90;;;;;;5070216;28;20125;-46
2022/12/14 12:40:28;;;;;;;28.95;16.23;;;0.90;99.90;;;;;;5070507;28;20044;-45
2022/12/14 12:43:03;;;;;;;28.85;16.25;;;1.00;99.90;;;;;;5069571;28;20036;-46
2022/12/14 12:45:41;;;;;;;26.75;15.75;;;1.10;99.90;;;;;;5070712;28;20039;-47
2022/12/14 12:48:44;;;;;;;28.73;16.58;;;0.90;99.90;;;;;;5070551;28;20040;-46
2022/12/14 12:51:16;;;;;;;25.63;15.73;;;1.20;99.90;;;;;;5070549;28;20191;-45
2022/12/14 12:53:46;;;;;;;28.30;15.60;;;1.40;99.90;;;;;;5070660;28;20041;-48
2022/12/14 12:56:17;;;;;;;25.85;15.40;;;1.40;99.90;;;;;;5070699;28;20123;-47
2022/12/14 12:58:45;;;;;;;27.83;15.48;;;1.40;99.90;;;;;;5070223;28;20056;-47
2022/12/14 13:01:37;;;;;;;27.88;15.25;;;1.60;99.90;;;;;;5070631;28;20041;-44
2022/12/14 13:04:09;;;;;;;26.27;14.98;;;1.50;99.90;;;;;;5052336;28;20052;-48
2022/12/14 13:06:49;;;;;;;26.65;15.27;;;1.50;99.90;;;;;;5070595;28;20063;-48